createdAt,value
2022-08-26T00:00:27.745Z,980.00
2022-08-26T00:01:29.672Z,979.98
2022-08-26T00:02:27.732Z,980.02
2022-08-26T00:03:27.736Z,980.02
2022-08-26T00:04:27.734Z,980.02
2022-08-26T00:05:27.678Z,980.03
2022-08-26T00:06:28.205Z,980.06
2022-08-26T00:07:27.626Z,980.02
2022-08-26T00:08:27.658Z,980.03
2022-08-26T00:09:27.616Z,980.04
2022-08-26T00:10:27.618Z,980.06
2022-08-26T00:11:27.678Z,980.04
2022-08-26T00:12:31.490Z,980.05
2022-08-26T00:13:28.555Z,980.04
2022-08-26T00:14:31.001Z,980.04
2022-08-26T00:15:27.567Z,980.00
2022-08-26T00:16:27.591Z,980.03
2022-08-26T00:17:27.596Z,980.05
2022-08-26T00:18:27.526Z,980.06
2022-08-26T00:19:27.512Z,980.05
2022-08-26T00:20:27.510Z,980.04
2022-08-26T00:21:27.477Z,980.03
2022-08-26T00:22:27.487Z,980.06
2022-08-26T00:23:28.849Z,980.07
2022-08-26T00:24:27.459Z,980.07
2022-08-26T00:25:27.430Z,980.06
2022-08-26T00:26:28.444Z,980.05
2022-08-26T00:27:27.416Z,980.08
2022-08-26T00:28:28.268Z,980.10
2022-08-26T00:29:27.426Z,980.14
2022-08-26T00:30:28.268Z,980.11
2022-08-26T00:31:27.421Z,980.12
2022-08-26T00:32:27.375Z,980.12
2022-08-26T00:33:27.369Z,980.09
2022-08-26T00:34:27.374Z,980.09
2022-08-26T00:35:27.956Z,980.13
2022-08-26T00:36:29.649Z,980.12
2022-08-26T00:37:27.308Z,980.08
2022-08-26T00:38:27.304Z,980.14
2022-08-26T00:39:27.289Z,980.10
2022-08-26T00:40:27.390Z,980.12
2022-08-26T00:41:27.261Z,980.10
2022-08-26T00:42:27.307Z,980.10
2022-08-26T00:43:27.280Z,980.11
2022-08-26T00:44:27.339Z,980.10
2022-08-26T00:45:27.255Z,980.13
2022-08-26T00:46:27.219Z,980.16
2022-08-26T00:47:27.223Z,980.11
2022-08-26T00:48:27.227Z,980.17
2022-08-26T00:49:27.167Z,980.13
2022-08-26T00:50:27.178Z,980.17
2022-08-26T00:51:29.528Z,980.14
2022-08-26T00:52:27.157Z,980.13
2022-08-26T00:53:27.934Z,980.11
2022-08-26T00:54:27.309Z,980.11
2022-08-26T00:55:27.338Z,980.10
2022-08-26T00:56:28.102Z,980.08
2022-08-26T00:57:27.079Z,980.17
2022-08-26T00:58:27.070Z,980.11
2022-08-26T00:59:27.074Z,980.11
2022-08-26T01:00:27.062Z,980.11
2022-08-26T01:01:27.072Z,980.10
2022-08-26T01:02:27.048Z,980.11
2022-08-26T01:03:27.018Z,980.13
2022-08-26T01:04:27.011Z,980.14
2022-08-26T01:05:26.999Z,980.15
2022-08-26T01:06:27.010Z,980.15
2022-08-26T01:07:27.581Z,980.17
2022-08-26T01:08:26.973Z,980.18
2022-08-26T01:09:26.960Z,980.15
2022-08-26T01:10:26.939Z,980.15
2022-08-26T01:11:27.030Z,980.18
2022-08-26T01:12:27.036Z,980.18
2022-08-26T01:13:26.899Z,980.15
2022-08-26T01:14:26.906Z,980.18
2022-08-26T01:15:26.873Z,980.18
2022-08-26T01:16:26.897Z,980.15
2022-08-26T01:17:27.373Z,980.15
2022-08-26T01:18:26.861Z,980.11
2022-08-26T01:19:26.822Z,980.15
2022-08-26T01:20:26.830Z,980.08
2022-08-26T01:21:26.800Z,980.10
2022-08-26T01:22:28.165Z,980.12
2022-08-26T01:23:27.305Z,980.13
2022-08-26T01:24:26.799Z,980.11
2022-08-26T01:25:26.801Z,980.11
2022-08-26T01:26:26.846Z,980.11
2022-08-26T01:27:26.731Z,980.10
2022-08-26T01:28:27.950Z,980.05
2022-08-26T01:29:26.741Z,980.07
2022-08-26T01:30:26.716Z,980.03
2022-08-26T01:31:26.917Z,980.03
2022-08-26T01:32:26.858Z,980.06
2022-08-26T01:33:26.961Z,980.02
2022-08-26T01:34:26.930Z,980.04
2022-08-26T01:35:26.660Z,980.04
2022-08-26T01:36:26.650Z,980.03
2022-08-26T01:37:26.650Z,980.04
2022-08-26T01:38:26.635Z,980.01
2022-08-26T01:39:27.614Z,980.01
2022-08-26T01:40:26.725Z,980.01
2022-08-26T01:41:27.261Z,979.99
2022-08-26T01:42:26.595Z,979.99
2022-08-26T01:43:26.566Z,980.00
2022-08-26T01:44:26.636Z,980.00
2022-08-26T01:45:26.698Z,980.03
2022-08-26T01:46:26.547Z,980.02
2022-08-26T01:47:26.522Z,980.10
2022-08-26T01:48:26.545Z,980.08
2022-08-26T01:49:26.543Z,980.12
2022-08-26T01:50:28.175Z,980.10
2022-08-26T01:51:26.496Z,980.07
2022-08-26T01:52:28.069Z,980.07
2022-08-26T01:53:26.475Z,980.08
2022-08-26T01:54:26.457Z,980.07
2022-08-26T01:55:33.090Z,980.07
2022-08-26T01:56:33.266Z,980.08
2022-08-26T01:57:27.402Z,980.12
2022-08-26T01:58:26.419Z,980.11
2022-08-26T01:59:26.602Z,980.10
2022-08-26T02:00:26.665Z,980.12
2022-08-26T02:01:29.204Z,980.08
2022-08-26T02:02:26.378Z,980.06
2022-08-26T02:03:26.399Z,980.12
2022-08-26T02:04:26.459Z,980.07
2022-08-26T02:05:26.402Z,980.08
2022-08-26T02:06:26.384Z,980.08
2022-08-26T02:07:26.764Z,980.08
2022-08-26T02:08:26.287Z,980.06
2022-08-26T02:09:26.304Z,980.06
2022-08-26T02:10:26.352Z,980.07
2022-08-26T02:11:26.402Z,980.11
2022-08-26T02:12:26.440Z,980.12
2022-08-26T02:13:26.253Z,980.12
2022-08-26T02:14:26.781Z,980.14
2022-08-26T02:15:26.238Z,980.16
2022-08-26T02:16:26.591Z,980.16
2022-08-26T02:17:26.579Z,980.20
2022-08-26T02:18:26.166Z,980.14
2022-08-26T02:19:26.191Z,980.16
2022-08-26T02:20:26.566Z,980.21
2022-08-26T02:21:26.186Z,980.20
2022-08-26T02:22:26.145Z,980.21
2022-08-26T02:23:26.147Z,980.22
2022-08-26T02:24:27.488Z,980.24
2022-08-26T02:25:26.114Z,980.26
2022-08-26T02:26:27.110Z,980.30
2022-08-26T02:27:26.121Z,980.35
2022-08-26T02:28:26.641Z,980.38
2022-08-26T02:29:26.635Z,980.35
2022-08-26T02:30:26.145Z,980.34
2022-08-26T02:31:26.295Z,980.38
2022-08-26T02:32:27.127Z,980.41
2022-08-26T02:33:26.113Z,980.42
2022-08-26T02:34:25.981Z,980.42
2022-08-26T02:35:26.044Z,980.41
2022-08-26T02:36:28.733Z,980.39
2022-08-26T02:37:25.981Z,980.40
2022-08-26T02:38:25.956Z,980.38
2022-08-26T02:39:25.941Z,980.35
2022-08-26T02:40:26.308Z,980.37
2022-08-26T02:41:25.925Z,980.34
2022-08-26T02:42:26.303Z,980.36
2022-08-26T02:43:31.811Z,980.37
2022-08-26T02:44:27.411Z,980.35
2022-08-26T02:45:26.447Z,980.34
2022-08-26T02:46:29.852Z,980.36
2022-08-26T02:47:25.853Z,980.39
2022-08-26T02:48:25.823Z,980.42
2022-08-26T02:49:25.837Z,980.41
2022-08-26T02:50:25.833Z,980.45
2022-08-26T02:51:25.869Z,980.44
2022-08-26T02:52:25.861Z,980.44
2022-08-26T02:53:25.837Z,980.42
2022-08-26T02:54:25.833Z,980.38
2022-08-26T02:55:25.911Z,980.42
2022-08-26T02:56:25.801Z,980.40
2022-08-26T02:57:26.006Z,980.42
2022-08-26T02:58:25.736Z,980.41
2022-08-26T02:59:25.784Z,980.41
2022-08-26T03:00:25.765Z,980.35
2022-08-26T03:01:25.795Z,980.36
2022-08-26T03:02:26.077Z,980.33
2022-08-26T03:03:25.679Z,980.31
2022-08-26T03:04:26.036Z,980.29
2022-08-26T03:05:25.742Z,980.33
2022-08-26T03:06:25.634Z,980.31
2022-08-26T03:07:26.095Z,980.29
2022-08-26T03:08:25.652Z,980.28
2022-08-26T03:09:26.083Z,980.31
2022-08-26T03:10:26.018Z,980.32
2022-08-26T03:11:27.635Z,980.28
2022-08-26T03:12:26.548Z,980.31
2022-08-26T03:13:25.701Z,980.37
2022-08-26T03:14:25.816Z,980.37
2022-08-26T03:15:25.828Z,980.39
2022-08-26T03:16:25.569Z,980.36
2022-08-26T03:17:26.947Z,980.35
2022-08-26T03:18:25.508Z,980.31
2022-08-26T03:19:25.956Z,980.32
2022-08-26T03:20:25.974Z,980.29
2022-08-26T03:21:26.057Z,980.28
2022-08-26T03:22:26.097Z,980.30
2022-08-26T03:23:25.462Z,980.28
2022-08-26T03:24:26.182Z,980.29
2022-08-26T03:25:25.416Z,980.34
2022-08-26T03:26:25.433Z,980.34
2022-08-26T03:27:25.474Z,980.36
2022-08-26T03:28:27.138Z,980.34
2022-08-26T03:29:25.417Z,980.35
2022-08-26T03:30:25.376Z,980.36
2022-08-26T03:31:25.413Z,980.36
2022-08-26T03:32:27.208Z,980.38
2022-08-26T03:33:25.332Z,980.34
2022-08-26T03:34:25.445Z,980.30
2022-08-26T03:35:25.361Z,980.36
2022-08-26T03:36:25.266Z,980.34
2022-08-26T03:37:25.273Z,980.29
2022-08-26T03:38:28.468Z,980.33
2022-08-26T03:39:25.275Z,980.33
2022-08-26T03:40:25.383Z,980.32
2022-08-26T03:41:25.245Z,980.33
2022-08-26T03:42:25.205Z,980.34
2022-08-26T03:43:25.209Z,980.30
2022-08-26T03:44:25.205Z,980.29
2022-08-26T03:45:25.486Z,980.31
2022-08-26T03:46:25.252Z,980.28
2022-08-26T03:47:25.175Z,980.32
2022-08-26T03:48:25.145Z,980.28
2022-08-26T03:49:25.160Z,980.32
2022-08-26T03:50:25.146Z,980.31
2022-08-26T03:51:25.480Z,980.32
2022-08-26T03:52:25.255Z,980.33
2022-08-26T03:53:25.109Z,980.32
2022-08-26T03:54:25.586Z,980.31
2022-08-26T03:55:27.279Z,980.36
2022-08-26T03:56:25.195Z,980.33
2022-08-26T03:57:25.615Z,980.38
2022-08-26T03:58:25.025Z,980.40
2022-08-26T03:59:25.039Z,980.38
2022-08-26T04:00:25.737Z,980.38
2022-08-26T04:01:25.807Z,980.40
2022-08-26T04:02:25.030Z,980.39
2022-08-26T04:03:25.025Z,980.39
2022-08-26T04:04:24.978Z,980.40
2022-08-26T04:05:24.965Z,980.44
2022-08-26T04:06:25.058Z,980.45
2022-08-26T04:07:24.934Z,980.44
2022-08-26T04:08:24.928Z,980.44
2022-08-26T04:09:24.918Z,980.45
2022-08-26T04:10:29.229Z,980.44
2022-08-26T04:11:25.110Z,980.43
2022-08-26T04:12:24.868Z,980.41
2022-08-26T04:13:24.879Z,980.49
2022-08-26T04:14:25.316Z,980.49
2022-08-26T04:15:24.863Z,980.52
2022-08-26T04:16:24.987Z,980.47
2022-08-26T04:17:25.052Z,980.52
2022-08-26T04:18:24.836Z,980.55
2022-08-26T04:19:24.796Z,980.52
2022-08-26T04:20:24.786Z,980.50
2022-08-26T04:21:24.846Z,980.50
2022-08-26T04:22:25.072Z,980.52
2022-08-26T04:23:24.781Z,980.53
2022-08-26T04:24:24.720Z,980.50
2022-08-26T04:25:24.724Z,980.49
2022-08-26T04:26:24.706Z,980.47
2022-08-26T04:27:25.001Z,980.50
2022-08-26T04:28:24.680Z,980.53
2022-08-26T04:29:24.679Z,980.50
2022-08-26T04:30:24.676Z,980.46
2022-08-26T04:31:24.709Z,980.47
2022-08-26T04:32:24.657Z,980.49
2022-08-26T04:33:32.291Z,980.49
2022-08-26T04:34:27.250Z,980.50
2022-08-26T04:35:26.126Z,980.55
2022-08-26T04:36:25.057Z,980.51
2022-08-26T04:37:24.585Z,980.49
2022-08-26T04:38:24.578Z,980.48
2022-08-26T04:39:25.225Z,980.45
2022-08-26T04:40:24.676Z,980.51
2022-08-26T04:41:24.537Z,980.51
2022-08-26T04:42:26.229Z,980.53
2022-08-26T04:43:24.541Z,980.51
2022-08-26T04:44:24.518Z,980.53
2022-08-26T04:45:24.508Z,980.59
2022-08-26T04:46:24.592Z,980.56
2022-08-26T04:47:26.226Z,980.56
2022-08-26T04:48:24.476Z,980.60
2022-08-26T04:49:26.133Z,980.60
2022-08-26T04:50:24.437Z,980.56
2022-08-26T04:51:24.437Z,980.58
2022-08-26T04:52:24.412Z,980.61
2022-08-26T04:53:24.426Z,980.60
2022-08-26T04:54:25.172Z,980.59
2022-08-26T04:55:37.323Z,980.60
2022-08-26T04:56:25.669Z,980.59
2022-08-26T04:57:24.357Z,980.64
2022-08-26T04:58:24.330Z,980.62
2022-08-26T04:59:24.598Z,980.61
2022-08-26T05:00:24.330Z,980.61
2022-08-26T05:01:24.343Z,980.67
2022-08-26T05:02:24.291Z,980.70
2022-08-26T05:03:24.288Z,980.69
2022-08-26T05:04:24.314Z,980.70
2022-08-26T05:05:24.279Z,980.74
2022-08-26T05:06:24.253Z,980.74
2022-08-26T05:07:24.237Z,980.73
2022-08-26T05:08:24.245Z,980.76
2022-08-26T05:09:24.225Z,980.77
2022-08-26T05:10:24.198Z,980.79
2022-08-26T05:11:24.188Z,980.79
2022-08-26T05:12:24.166Z,980.77
2022-08-26T05:13:24.166Z,980.77
2022-08-26T05:14:24.168Z,980.75
2022-08-26T05:15:24.146Z,980.78
2022-08-26T05:16:24.326Z,980.83
2022-08-26T05:17:24.125Z,980.82
2022-08-26T05:18:24.112Z,980.79
2022-08-26T05:19:24.102Z,980.82
2022-08-26T05:20:26.227Z,980.84
2022-08-26T05:21:24.079Z,980.82
2022-08-26T05:22:24.078Z,980.77
2022-08-26T05:23:24.138Z,980.77
2022-08-26T05:24:24.038Z,980.81
2022-08-26T05:25:24.169Z,980.80
2022-08-26T05:26:24.169Z,980.80
2022-08-26T05:27:24.346Z,980.78
2022-08-26T05:28:23.992Z,980.81
2022-08-26T05:29:24.015Z,980.81
2022-08-26T05:30:23.968Z,980.82
2022-08-26T05:31:24.061Z,980.78
2022-08-26T05:32:23.958Z,980.76
2022-08-26T05:33:23.964Z,980.76
2022-08-26T05:34:23.931Z,980.73
2022-08-26T05:35:24.918Z,980.80
2022-08-26T05:36:23.898Z,980.78
2022-08-26T05:37:23.909Z,980.76
2022-08-26T05:38:23.890Z,980.76
2022-08-26T05:39:23.891Z,980.74
2022-08-26T05:40:23.927Z,980.73
2022-08-26T05:41:23.872Z,980.74
2022-08-26T05:42:23.839Z,980.77
2022-08-26T05:43:23.988Z,980.75
2022-08-26T05:44:23.840Z,980.76
2022-08-26T05:45:23.823Z,980.75
2022-08-26T05:46:23.827Z,980.72
2022-08-26T05:47:23.799Z,980.76
2022-08-26T05:48:24.336Z,980.76
2022-08-26T05:49:26.401Z,980.76
2022-08-26T05:50:23.759Z,980.74
2022-08-26T05:51:25.983Z,980.76
2022-08-26T05:52:24.617Z,980.70
2022-08-26T05:53:23.996Z,980.74
2022-08-26T05:54:23.697Z,980.74
2022-08-26T05:55:23.707Z,980.74
2022-08-26T05:56:23.690Z,980.78
2022-08-26T05:57:23.712Z,980.76
2022-08-26T05:58:23.679Z,980.75
2022-08-26T05:59:24.690Z,980.75
2022-08-26T06:00:23.638Z,980.79
2022-08-26T06:01:23.716Z,980.78
2022-08-26T06:02:23.686Z,980.85
2022-08-26T06:03:23.619Z,980.79
2022-08-26T06:04:24.880Z,980.89
2022-08-26T06:05:23.589Z,980.80
2022-08-26T06:06:27.993Z,980.80
2022-08-26T06:07:24.589Z,980.79
2022-08-26T06:08:23.561Z,980.80
2022-08-26T06:09:23.540Z,980.82
2022-08-26T06:10:32.033Z,980.83
2022-08-26T06:11:24.520Z,980.87
2022-08-26T06:12:23.772Z,980.87
2022-08-26T06:13:23.518Z,980.87
2022-08-26T06:14:23.489Z,980.90
2022-08-26T06:15:23.509Z,980.89
2022-08-26T06:16:23.565Z,980.91
2022-08-26T06:17:23.713Z,980.90
2022-08-26T06:18:23.441Z,980.93
2022-08-26T06:19:23.431Z,980.90
2022-08-26T06:20:23.420Z,980.92
2022-08-26T06:21:23.401Z,980.90
2022-08-26T06:22:23.860Z,980.88
2022-08-26T06:23:23.363Z,980.89
2022-08-26T06:24:27.015Z,980.95
2022-08-26T06:25:23.350Z,980.88
2022-08-26T06:26:23.382Z,980.85
2022-08-26T06:27:23.320Z,980.89
2022-08-26T06:28:23.328Z,980.87
2022-08-26T06:29:24.576Z,980.85
2022-08-26T06:30:23.313Z,980.84
2022-08-26T06:31:23.370Z,980.83
2022-08-26T06:32:23.292Z,980.84
2022-08-26T06:33:23.253Z,980.86
2022-08-26T06:34:23.735Z,980.86
2022-08-26T06:35:24.232Z,980.87
2022-08-26T06:36:23.251Z,980.88
2022-08-26T06:37:23.222Z,980.88
2022-08-26T06:38:23.288Z,980.95
2022-08-26T06:39:23.247Z,980.96
2022-08-26T06:40:23.230Z,980.96
2022-08-26T06:41:23.181Z,980.95
2022-08-26T06:42:23.171Z,980.94
2022-08-26T06:43:23.195Z,980.95
2022-08-26T06:44:23.155Z,980.93
2022-08-26T06:45:23.136Z,980.97
2022-08-26T06:46:23.157Z,980.98
2022-08-26T06:47:23.091Z,980.98
2022-08-26T06:48:23.107Z,981.04
2022-08-26T06:49:26.817Z,981.00
2022-08-26T06:50:23.134Z,980.98
2022-08-26T06:51:23.613Z,981.02
2022-08-26T06:52:24.536Z,981.02
2022-08-26T06:53:23.051Z,981.00
2022-08-26T06:54:23.075Z,980.99
2022-08-26T06:55:27.046Z,980.97
2022-08-26T06:56:23.263Z,980.98
2022-08-26T06:57:22.992Z,980.97
2022-08-26T06:58:23.152Z,980.95
2022-08-26T06:59:22.962Z,980.98
2022-08-26T07:00:23.050Z,980.99
2022-08-26T07:01:23.358Z,980.98
2022-08-26T07:02:22.989Z,980.98
2022-08-26T07:03:22.942Z,980.92
2022-08-26T07:04:23.216Z,980.93
2022-08-26T07:05:22.902Z,980.95
2022-08-26T07:06:23.741Z,980.92
2022-08-26T07:07:23.239Z,980.99
2022-08-26T07:08:22.881Z,980.95
2022-08-26T07:09:22.937Z,980.98
2022-08-26T07:10:22.878Z,980.98
2022-08-26T07:11:22.857Z,980.97
2022-08-26T07:12:22.854Z,980.97
2022-08-26T07:13:30.774Z,980.96
2022-08-26T07:14:23.816Z,980.95
2022-08-26T07:15:23.848Z,980.98
2022-08-26T07:16:22.856Z,980.96
2022-08-26T07:17:24.990Z,980.98
2022-08-26T07:18:22.746Z,980.97
2022-08-26T07:19:29.770Z,980.99
2022-08-26T07:20:23.775Z,980.96
2022-08-26T07:21:22.755Z,981.01
2022-08-26T07:22:22.775Z,980.95
2022-08-26T07:23:22.687Z,981.01
2022-08-26T07:24:22.686Z,980.97
2022-08-26T07:25:22.717Z,980.99
2022-08-26T07:26:22.660Z,980.97
2022-08-26T07:27:22.633Z,980.97
2022-08-26T07:28:22.640Z,980.97
2022-08-26T07:29:22.678Z,981.03
2022-08-26T07:30:22.691Z,980.99
2022-08-26T07:31:22.650Z,981.02
2022-08-26T07:32:22.980Z,981.00
2022-08-26T07:33:22.580Z,980.99
2022-08-26T07:34:22.704Z,980.99
2022-08-26T07:35:22.705Z,981.04
2022-08-26T07:36:22.715Z,981.01
2022-08-26T07:37:22.556Z,981.02
2022-08-26T07:38:22.566Z,980.99
2022-08-26T07:39:22.625Z,981.02
2022-08-26T07:40:22.742Z,981.04
2022-08-26T07:41:22.751Z,981.03
2022-08-26T07:42:22.555Z,981.08
2022-08-26T07:43:22.460Z,981.09
2022-08-26T07:44:22.492Z,981.10
2022-08-26T07:45:22.675Z,981.07
2022-08-26T07:46:27.153Z,981.05
2022-08-26T07:47:25.689Z,981.08
2022-08-26T07:48:22.441Z,981.08
2022-08-26T07:49:22.846Z,981.10
2022-08-26T07:50:22.719Z,981.07
2022-08-26T07:51:23.433Z,981.07
2022-08-26T07:52:26.343Z,981.05
2022-08-26T07:53:24.152Z,981.03
2022-08-26T07:54:27.087Z,981.03
2022-08-26T07:55:23.393Z,981.03
2022-08-26T07:56:22.350Z,981.07
2022-08-26T07:57:24.316Z,981.06
2022-08-26T07:58:22.345Z,981.09
2022-08-26T07:59:22.788Z,981.11
2022-08-26T08:00:22.340Z,981.10
2022-08-26T08:01:22.307Z,981.09
2022-08-26T08:02:22.314Z,981.08
2022-08-26T08:03:22.240Z,981.13
2022-08-26T08:04:26.327Z,981.12
2022-08-26T08:05:22.262Z,981.12
2022-08-26T08:06:27.177Z,981.10
2022-08-26T08:07:25.726Z,981.11
2022-08-26T08:08:27.723Z,981.13
2022-08-26T08:09:23.262Z,981.15
2022-08-26T08:10:22.232Z,981.15
2022-08-26T08:11:22.341Z,981.16
2022-08-26T08:12:22.358Z,981.17
2022-08-26T08:13:22.254Z,981.20
2022-08-26T08:14:22.548Z,981.14
2022-08-26T08:15:22.474Z,981.16
2022-08-26T08:16:22.522Z,981.15
2022-08-26T08:17:22.489Z,981.13
2022-08-26T08:18:22.090Z,981.14
2022-08-26T08:19:22.727Z,981.11
2022-08-26T08:20:22.416Z,981.12
2022-08-26T08:21:24.061Z,981.12
2022-08-26T08:22:22.628Z,981.08
2022-08-26T08:23:22.433Z,981.11
2022-08-26T08:24:22.239Z,981.08
2022-08-26T08:25:22.806Z,981.08
2022-08-26T08:26:22.756Z,981.10
2022-08-26T08:27:24.066Z,981.09
2022-08-26T08:28:22.049Z,981.16
2022-08-26T08:29:22.059Z,981.11
2022-08-26T08:30:22.786Z,981.10
2022-08-26T08:31:45.017Z,981.10
2022-08-26T08:32:23.214Z,981.13
2022-08-26T08:33:21.907Z,981.14
2022-08-26T08:34:22.317Z,981.11
2022-08-26T08:35:22.200Z,981.06
2022-08-26T08:36:22.435Z,981.10
2022-08-26T08:37:22.418Z,981.10
2022-08-26T08:38:22.130Z,981.04
2022-08-26T08:39:22.344Z,981.06
2022-08-26T08:40:22.381Z,981.08
2022-08-26T08:41:21.830Z,981.08
2022-08-26T08:42:23.504Z,981.05
2022-08-26T08:43:21.787Z,981.06
2022-08-26T08:44:21.917Z,981.01
2022-08-26T08:45:21.794Z,981.00
2022-08-26T08:46:21.848Z,981.01
2022-08-26T08:47:21.810Z,981.04
2022-08-26T08:48:22.290Z,981.06
2022-08-26T08:49:22.853Z,981.07
2022-08-26T08:50:21.801Z,981.03
2022-08-26T08:51:21.803Z,981.04
2022-08-26T08:52:21.750Z,981.09
2022-08-26T08:53:21.711Z,981.06
2022-08-26T08:54:21.959Z,981.04
2022-08-26T08:55:21.744Z,981.00
2022-08-26T08:56:21.661Z,981.02
2022-08-26T08:57:21.771Z,981.00
2022-08-26T08:58:21.662Z,981.05
2022-08-26T08:59:21.672Z,981.04
2022-08-26T09:00:21.800Z,980.99
2022-08-26T09:01:22.647Z,980.99
2022-08-26T09:02:21.826Z,981.00
2022-08-26T09:03:21.780Z,981.01
2022-08-26T09:04:21.692Z,981.00
2022-08-26T09:05:21.812Z,981.02
2022-08-26T09:06:21.600Z,981.04
2022-08-26T09:07:21.814Z,981.01
2022-08-26T09:08:21.614Z,981.05
2022-08-26T09:09:21.722Z,981.03
2022-08-26T09:10:21.534Z,981.02
2022-08-26T09:11:21.770Z,981.08
2022-08-26T09:12:29.838Z,981.08
2022-08-26T09:13:26.242Z,981.05
2022-08-26T09:14:21.475Z,981.02
2022-08-26T09:15:21.572Z,981.00
2022-08-26T09:16:21.632Z,980.95
2022-08-26T09:17:21.674Z,980.99
2022-08-26T09:18:21.705Z,980.95
2022-08-26T09:19:21.685Z,980.95
2022-08-26T09:20:21.809Z,980.95
2022-08-26T09:21:21.813Z,980.96
2022-08-26T09:23:21.406Z,980.96
2022-08-26T09:24:22.379Z,980.95
2022-08-26T09:25:22.754Z,980.98
2022-08-26T09:26:23.537Z,980.99
2022-08-26T09:27:22.376Z,980.96
2022-08-26T09:28:21.346Z,980.97
2022-08-26T09:30:21.512Z,981.02
2022-08-26T09:31:21.695Z,980.97
2022-08-26T09:32:21.715Z,980.98
2022-08-26T09:33:21.691Z,980.98
2022-08-26T09:34:21.807Z,980.92
2022-08-26T09:35:21.283Z,980.89
2022-08-26T09:36:21.814Z,980.89
2022-08-26T09:37:21.396Z,980.87
2022-08-26T09:38:21.828Z,980.91
2022-08-26T09:39:21.186Z,980.90
2022-08-26T09:40:21.235Z,980.95
2022-08-26T09:41:21.225Z,980.94
2022-08-26T09:42:21.281Z,980.96
2022-08-26T09:43:22.499Z,980.93
2022-08-26T09:44:21.823Z,980.91
2022-08-26T09:45:22.066Z,980.92
2022-08-26T09:46:21.269Z,980.90
2022-08-26T09:47:21.266Z,980.93
2022-08-26T09:48:21.275Z,980.87
2022-08-26T09:49:21.280Z,980.81
2022-08-26T09:50:21.287Z,980.84
2022-08-26T09:51:21.287Z,980.88
2022-08-26T09:52:21.237Z,980.83
2022-08-26T09:53:28.533Z,980.89
2022-08-26T09:54:22.347Z,980.89
2022-08-26T09:55:22.393Z,980.92
2022-08-26T09:56:21.338Z,980.84
2022-08-26T09:57:20.968Z,980.84
2022-08-26T09:58:20.958Z,980.82
2022-08-26T09:59:21.074Z,980.80
2022-08-26T10:00:21.149Z,980.82
2022-08-26T10:01:21.034Z,980.81
2022-08-26T10:02:21.069Z,980.81
2022-08-26T10:03:20.890Z,980.78
2022-08-26T10:04:20.941Z,980.78
2022-08-26T10:05:20.880Z,980.75
2022-08-26T10:06:21.143Z,980.73
2022-08-26T10:07:20.951Z,980.76
2022-08-26T10:08:20.899Z,980.70
2022-08-26T10:09:20.908Z,980.71
2022-08-26T10:10:20.920Z,980.71
2022-08-26T10:11:20.809Z,980.67
2022-08-26T10:12:20.837Z,980.68
2022-08-26T10:13:20.841Z,980.63
2022-08-26T10:14:20.837Z,980.66
2022-08-26T10:15:20.855Z,980.63
2022-08-26T10:16:20.871Z,980.62
2022-08-26T10:17:20.890Z,980.62
2022-08-26T10:18:20.868Z,980.59
2022-08-26T10:19:20.905Z,980.57
2022-08-26T10:20:22.919Z,980.58
2022-08-26T10:21:20.892Z,980.51
2022-08-26T10:22:20.722Z,980.50
2022-08-26T10:23:20.713Z,980.48
2022-08-26T10:24:20.713Z,980.45
2022-08-26T10:25:20.700Z,980.48
2022-08-26T10:26:20.762Z,980.49
2022-08-26T10:27:20.629Z,980.41
2022-08-26T10:28:20.650Z,980.41
2022-08-26T10:29:20.736Z,980.43
2022-08-26T10:30:20.817Z,980.40
2022-08-26T10:31:20.690Z,980.46
2022-08-26T10:32:21.815Z,980.42
2022-08-26T10:33:20.763Z,980.41
2022-08-26T10:34:21.263Z,980.41
2022-08-26T10:35:21.302Z,980.35
2022-08-26T10:36:20.841Z,980.34
2022-08-26T10:37:20.532Z,980.32
2022-08-26T10:38:20.503Z,980.33
2022-08-26T10:39:20.803Z,980.26
2022-08-26T10:40:20.848Z,980.28
2022-08-26T10:41:20.824Z,980.28
2022-08-26T10:42:20.946Z,980.26
2022-08-26T10:43:21.097Z,980.24
2022-08-26T10:44:20.433Z,980.25
2022-08-26T10:45:20.476Z,980.24
2022-08-26T10:46:20.539Z,980.27
2022-08-26T10:47:20.574Z,980.21
2022-08-26T10:48:20.394Z,980.22
2022-08-26T10:49:20.458Z,980.22
2022-08-26T10:50:20.366Z,980.19
2022-08-26T10:51:20.385Z,980.19
2022-08-26T10:52:20.381Z,980.18
2022-08-26T10:53:25.295Z,980.17
2022-08-26T10:54:21.437Z,980.15
2022-08-26T10:55:20.327Z,980.15
2022-08-26T10:56:20.297Z,980.13
2022-08-26T10:57:20.301Z,980.18
2022-08-26T10:58:26.171Z,980.19
2022-08-26T10:59:21.279Z,980.19
2022-08-26T11:00:20.273Z,980.18
2022-08-26T11:01:22.781Z,980.20
2022-08-26T11:02:24.711Z,980.14
2022-08-26T11:03:22.110Z,980.09
2022-08-26T11:04:20.332Z,980.22
2022-08-26T11:05:20.215Z,980.18
2022-08-26T11:06:20.278Z,980.16
2022-08-26T11:07:20.217Z,980.15
2022-08-26T11:08:20.156Z,980.09
2022-08-26T11:09:20.156Z,980.10
2022-08-26T11:10:21.200Z,980.12
2022-08-26T11:11:20.138Z,980.12
2022-08-26T11:12:20.125Z,980.09
2022-08-26T11:13:20.148Z,980.10
2022-08-26T11:14:28.393Z,980.07
2022-08-26T11:15:24.593Z,980.12
2022-08-26T11:16:20.138Z,980.11
2022-08-26T11:17:20.075Z,980.11
2022-08-26T11:18:20.059Z,980.07
2022-08-26T11:19:21.076Z,980.06
2022-08-26T11:20:24.333Z,980.08
2022-08-26T11:21:21.026Z,980.09
2022-08-26T11:22:19.999Z,980.11
2022-08-26T11:23:20.009Z,980.11
2022-08-26T11:24:20.117Z,980.07
2022-08-26T11:25:20.002Z,980.10
2022-08-26T11:26:35.481Z,980.08
2022-08-26T11:27:20.962Z,980.07
2022-08-26T11:28:19.970Z,980.07
2022-08-26T11:29:20.743Z,980.06
2022-08-26T11:30:19.952Z,980.02
2022-08-26T11:31:19.972Z,980.04
2022-08-26T11:32:19.889Z,980.04
2022-08-26T11:33:19.910Z,980.01
2022-08-26T11:34:19.860Z,979.98
2022-08-26T11:35:19.877Z,980.01
2022-08-26T11:36:19.884Z,980.00
2022-08-26T11:38:19.821Z,980.05
2022-08-26T11:39:19.830Z,980.03
2022-08-26T11:40:19.860Z,979.96
2022-08-26T11:41:19.832Z,979.98
2022-08-26T11:42:20.131Z,980.00
2022-08-26T11:43:20.177Z,979.97
2022-08-26T11:44:19.781Z,980.04
2022-08-26T11:45:19.885Z,979.94
2022-08-26T11:46:19.834Z,979.96
2022-08-26T11:47:20.582Z,979.91
2022-08-26T11:48:19.740Z,979.92
2022-08-26T11:49:19.743Z,979.84
2022-08-26T11:50:19.757Z,979.82
2022-08-26T11:51:19.702Z,979.85
2022-08-26T11:52:20.904Z,979.84
2022-08-26T11:53:19.722Z,979.79
2022-08-26T11:54:31.871Z,979.76
2022-08-26T11:55:20.689Z,979.73
2022-08-26T11:56:19.625Z,979.76
2022-08-26T11:57:19.623Z,979.77
2022-08-26T11:58:19.613Z,979.79
2022-08-26T11:59:19.644Z,979.81
2022-08-26T12:00:22.270Z,979.84
2022-08-26T12:01:19.578Z,979.76
2022-08-26T12:02:19.654Z,979.87
2022-08-26T12:03:19.728Z,979.86
2022-08-26T12:04:19.882Z,979.79
2022-08-26T12:05:19.598Z,979.80
2022-08-26T12:06:19.643Z,979.86
2022-08-26T12:07:23.890Z,979.83
2022-08-26T12:08:19.510Z,979.84
2022-08-26T12:09:19.621Z,979.84
2022-08-26T12:10:19.497Z,979.81
2022-08-26T12:11:19.491Z,979.86
2022-08-26T12:12:19.455Z,979.84
2022-08-26T12:13:19.448Z,979.86
2022-08-26T12:14:19.426Z,979.85
2022-08-26T12:15:19.533Z,979.84
2022-08-26T12:16:19.434Z,979.85
2022-08-26T12:17:19.420Z,979.82
2022-08-26T12:18:20.655Z,979.74
2022-08-26T12:19:21.202Z,979.67
2022-08-26T12:20:19.389Z,979.66
2022-08-26T12:21:19.440Z,979.72
2022-08-26T12:22:20.944Z,979.74
2022-08-26T12:23:19.357Z,979.76
2022-08-26T12:24:19.608Z,979.72
2022-08-26T12:25:19.327Z,979.66
2022-08-26T12:26:19.339Z,979.69
2022-08-26T12:27:19.317Z,979.68
2022-08-26T12:28:19.328Z,979.61
2022-08-26T12:29:26.828Z,979.64
2022-08-26T12:30:20.305Z,979.57
2022-08-26T12:31:19.394Z,979.59